sensor_id;sensor_type;location;lat;lon;timestamp;P1;durP1;ratioP1;P2;durP2;ratioP2
48268;SDS011;34088;52.232;5.196;2023-10-13T00:01:01;31.15;;;18.65;;
48268;SDS011;34088;52.232;5.196;2023-10-13T00:03:29;33.47;;;18.42;;
48268;SDS011;34088;52.232;5.196;2023-10-13T00:05:57;32.90;;;19.13;;
48268;SDS011;34088;52.232;5.196;2023-10-13T00:08:27;33.22;;;18.92;;
48268;SDS011;34088;52.232;5.196;2023-10-13T00:10:54;38.90;;;21.08;;
48268;SDS011;34088;52.232;5.196;2023-10-13T00:13:24;38.70;;;20.83;;
48268;SDS011;34088;52.232;5.196;2023-10-13T00:15:51;38.58;;;20.52;;
48268;SDS011;34088;52.232;5.196;2023-10-13T00:18:32;34.17;;;20.13;;
48268;SDS011;34088;52.232;5.196;2023-10-13T00:33:38;39.92;;;20.08;;
48268;SDS011;34088;52.232;5.196;2023-10-13T00:36:04;34.65;;;19.10;;
48268;SDS011;34088;52.232;5.196;2023-10-13T00:38:32;37.17;;;19.45;;
48268;SDS011;34088;52.232;5.196;2023-10-13T00:40:57;43.25;;;20.88;;
48268;SDS011;34088;52.232;5.196;2023-10-13T00:43:31;39.42;;;20.92;;
48268;SDS011;34088;52.232;5.196;2023-10-13T00:45:57;44.42;;;21.48;;
48268;SDS011;34088;52.232;5.196;2023-10-13T00:48:29;39.65;;;20.90;;
48268;SDS011;34088;52.232;5.196;2023-10-13T00:51:03;36.78;;;19.65;;
48268;SDS011;34088;52.232;5.196;2023-10-13T00:53:33;36.30;;;19.58;;
48268;SDS011;34088;52.232;5.196;2023-10-13T00:56:05;47.50;;;22.05;;
48268;SDS011;34088;52.232;5.196;2023-10-13T00:58:43;39.70;;;20.27;;
48268;SDS011;34088;52.232;5.196;2023-10-13T01:01:11;44.53;;;21.25;;
48268;SDS011;34088;52.232;5.196;2023-10-13T01:03:54;42.50;;;21.17;;
48268;SDS011;34088;52.232;5.196;2023-10-13T01:06:21;49.50;;;24.58;;
48268;SDS011;34088;52.232;5.196;2023-10-13T01:08:56;48.47;;;23.00;;
48268;SDS011;34088;52.232;5.196;2023-10-13T01:11:36;55.47;;;24.92;;
48268;SDS011;34088;52.232;5.196;2023-10-13T01:14:02;58.13;;;25.35;;
48268;SDS011;34088;52.232;5.196;2023-10-13T01:16:29;53.70;;;25.20;;
48268;SDS011;34088;52.232;5.196;2023-10-13T01:18:55;57.97;;;26.38;;
48268;SDS011;34088;52.232;5.196;2023-10-13T01:21:24;48.58;;;24.75;;
48268;SDS011;34088;52.232;5.196;2023-10-13T01:23:52;50.45;;;25.08;;
48268;SDS011;34088;52.232;5.196;2023-10-13T01:26:18;43.83;;;24.38;;
48268;SDS011;34088;52.232;5.196;2023-10-13T01:28:49;43.60;;;22.73;;
48268;SDS011;34088;52.232;5.196;2023-10-13T01:31:15;37.13;;;22.42;;
48268;SDS011;34088;52.232;5.196;2023-10-13T01:33:52;46.90;;;23.98;;
48268;SDS011;34088;52.232;5.196;2023-10-13T01:36:22;45.50;;;24.30;;
48268;SDS011;34088;52.232;5.196;2023-10-13T01:38:48;38.88;;;21.58;;
48268;SDS011;34088;52.232;5.196;2023-10-13T01:41:15;35.70;;;21.60;;
48268;SDS011;34088;52.232;5.196;2023-10-13T01:43:41;43.20;;;22.73;;
48268;SDS011;34088;52.232;5.196;2023-10-13T01:46:06;40.58;;;22.63;;
48268;SDS011;34088;52.232;5.196;2023-10-13T01:48:31;36.15;;;21.67;;
48268;SDS011;34088;52.232;5.196;2023-10-13T01:51:04;33.17;;;20.70;;
48268;SDS011;34088;52.232;5.196;2023-10-13T01:53:30;36.33;;;22.02;;
48268;SDS011;34088;52.232;5.196;2023-10-13T01:55:56;33.13;;;21.88;;
48268;SDS011;34088;52.232;5.196;2023-10-13T01:58:30;39.63;;;21.33;;
48268;SDS011;34088;52.232;5.196;2023-10-13T02:00:55;37.50;;;21.88;;
48268;SDS011;34088;52.232;5.196;2023-10-13T02:03:21;36.17;;;19.67;;
48268;SDS011;34088;52.232;5.196;2023-10-13T02:05:47;33.65;;;21.13;;
48268;SDS011;34088;52.232;5.196;2023-10-13T02:08:14;41.65;;;21.58;;
48268;SDS011;34088;52.232;5.196;2023-10-13T02:10:44;36.22;;;20.92;;
48268;SDS011;34088;52.232;5.196;2023-10-13T02:13:12;32.60;;;19.67;;
48268;SDS011;34088;52.232;5.196;2023-10-13T02:15:43;32.55;;;19.55;;
48268;SDS011;34088;52.232;5.196;2023-10-13T02:18:10;32.45;;;19.73;;
48268;SDS011;34088;52.232;5.196;2023-10-13T02:20:38;29.85;;;19.02;;
48268;SDS011;34088;52.232;5.196;2023-10-13T02:23:10;33.53;;;19.58;;
48268;SDS011;34088;52.232;5.196;2023-10-13T02:25:36;33.22;;;19.00;;
48268;SDS011;34088;52.232;5.196;2023-10-13T02:28:08;37.63;;;19.02;;
48268;SDS011;34088;52.232;5.196;2023-10-13T02:30:39;33.42;;;19.08;;
48268;SDS011;34088;52.232;5.196;2023-10-13T02:33:13;34.13;;;18.15;;
48268;SDS011;34088;52.232;5.196;2023-10-13T02:35:40;33.10;;;17.65;;
48268;SDS011;34088;52.232;5.196;2023-10-13T02:38:16;30.70;;;16.70;;
48268;SDS011;34088;52.232;5.196;2023-10-13T02:40:51;29.73;;;17.13;;
48268;SDS011;34088;52.232;5.196;2023-10-13T02:43:16;32.47;;;17.73;;
48268;SDS011;34088;52.232;5.196;2023-10-13T02:45:41;29.67;;;16.85;;
48268;SDS011;34088;52.232;5.196;2023-10-13T02:48:08;29.40;;;17.35;;
48268;SDS011;34088;52.232;5.196;2023-10-13T02:50:42;33.25;;;17.38;;
48268;SDS011;34088;52.232;5.196;2023-10-13T02:53:09;34.67;;;17.05;;
48268;SDS011;34088;52.232;5.196;2023-10-13T02:55:37;29.00;;;16.30;;
48268;SDS011;34088;52.232;5.196;2023-10-13T02:58:04;28.38;;;15.85;;
48268;SDS011;34088;52.232;5.196;2023-10-13T03:00:30;30.02;;;17.13;;
48268;SDS011;34088;52.232;5.196;2023-10-13T03:02:56;29.75;;;16.55;;
48268;SDS011;34088;52.232;5.196;2023-10-13T03:05:26;30.35;;;16.67;;
48268;SDS011;34088;52.232;5.196;2023-10-13T03:07:55;30.88;;;17.50;;
48268;SDS011;34088;52.232;5.196;2023-10-13T03:10:21;32.80;;;16.88;;
48268;SDS011;34088;52.232;5.196;2023-10-13T03:12:53;31.40;;;16.77;;
48268;SDS011;34088;52.232;5.196;2023-10-13T03:15:19;37.00;;;16.92;;
48268;SDS011;34088;52.232;5.196;2023-10-13T03:17:46;30.92;;;17.92;;
48268;SDS011;34088;52.232;5.196;2023-10-13T03:20:15;29.88;;;16.92;;
48268;SDS011;34088;52.232;5.196;2023-10-13T03:22:47;34.17;;;18.30;;
48268;SDS011;34088;52.232;5.196;2023-10-13T03:25:17;36.70;;;18.73;;
48268;SDS011;34088;52.232;5.196;2023-10-13T03:27:53;30.98;;;17.33;;
48268;SDS011;34088;52.232;5.196;2023-10-13T03:30:19;29.65;;;17.58;;
48268;SDS011;34088;52.232;5.196;2023-10-13T03:32:46;32.75;;;19.02;;
48268;SDS011;34088;52.232;5.196;2023-10-13T03:35:15;33.83;;;17.13;;
48268;SDS011;34088;52.232;5.196;2023-10-13T03:37:52;33.00;;;17.75;;
48268;SDS011;34088;52.232;5.196;2023-10-13T03:40:18;38.60;;;19.00;;
48268;SDS011;34088;52.232;5.196;2023-10-13T03:42:46;34.28;;;17.67;;
48268;SDS011;34088;52.232;5.196;2023-10-13T03:48:17;33.60;;;18.23;;
48268;SDS011;34088;52.232;5.196;2023-10-13T03:50:49;34.95;;;18.33;;
48268;SDS011;34088;52.232;5.196;2023-10-13T03:53:34;32.90;;;17.77;;
48268;SDS011;34088;52.232;5.196;2023-10-13T03:56:01;31.67;;;17.45;;
48268;SDS011;34088;52.232;5.196;2023-10-13T03:58:39;30.40;;;17.05;;
48268;SDS011;34088;52.232;5.196;2023-10-13T04:01:11;29.08;;;16.10;;
48268;SDS011;34088;52.232;5.196;2023-10-13T04:03:42;33.63;;;17.23;;
48268;SDS011;34088;52.232;5.196;2023-10-13T04:06:29;22.85;;;14.05;;
48268;SDS011;34088;52.232;5.196;2023-10-13T04:09:28;28.17;;;15.82;;
48268;SDS011;34088;52.232;5.196;2023-10-13T04:12:03;23.50;;;14.43;;
48268;SDS011;34088;52.232;5.196;2023-10-13T04:14:34;24.83;;;15.07;;
48268;SDS011;34088;52.232;5.196;2023-10-13T04:17:19;26.92;;;15.20;;
48268;SDS011;34088;52.232;5.196;2023-10-13T04:19:49;21.50;;;14.40;;
48268;SDS011;34088;52.232;5.196;2023-10-13T04:22:48;20.63;;;13.93;;
48268;SDS011;34088;52.232;5.196;2023-10-13T04:28:00;26.88;;;14.35;;
48268;SDS011;34088;52.232;5.196;2023-10-13T04:31:00;20.58;;;13.57;;
48268;SDS011;34088;52.232;5.196;2023-10-13T04:33:36;23.42;;;14.68;;
48268;SDS011;34088;52.232;5.196;2023-10-13T04:36:21;23.27;;;14.20;;
48268;SDS011;34088;52.232;5.196;2023-10-13T04:38:47;23.92;;;14.05;;
48268;SDS011;34088;52.232;5.196;2023-10-13T04:41:30;20.27;;;12.82;;
48268;SDS011;34088;52.232;5.196;2023-10-13T04:44:17;20.60;;;12.80;;
48268;SDS011;34088;52.232;5.196;2023-10-13T04:46:55;23.98;;;14.85;;
48268;SDS011;34088;52.232;5.196;2023-10-13T04:49:25;21.13;;;14.32;;
48268;SDS011;34088;52.232;5.196;2023-10-13T04:52:04;21.05;;;14.40;;
48268;SDS011;34088;52.232;5.196;2023-10-13T04:54:33;22.90;;;14.63;;
48268;SDS011;34088;52.232;5.196;2023-10-13T04:57:00;27.05;;;15.73;;
48268;SDS011;34088;52.232;5.196;2023-10-13T04:59:44;20.98;;;14.93;;
48268;SDS011;34088;52.232;5.196;2023-10-13T05:02:28;21.27;;;13.18;;
48268;SDS011;34088;52.232;5.196;2023-10-13T05:07:41;15.10;;;11.50;;
48268;SDS011;34088;52.232;5.196;2023-10-13T05:10:25;16.17;;;11.65;;
48268;SDS011;34088;52.232;5.196;2023-10-13T05:13:09;16.67;;;12.13;;
48268;SDS011;34088;52.232;5.196;2023-10-13T05:15:53;19.35;;;12.48;;
48268;SDS011;34088;52.232;5.196;2023-10-13T05:18:37;12.80;;;9.60;;
48268;SDS011;34088;52.232;5.196;2023-10-13T05:21:21;13.68;;;9.48;;
48268;SDS011;34088;52.232;5.196;2023-10-13T05:24:05;14.23;;;9.55;;
48268;SDS011;34088;52.232;5.196;2023-10-13T05:26:50;13.25;;;10.02;;
48268;SDS011;34088;52.232;5.196;2023-10-13T05:29:39;15.88;;;10.57;;
48268;SDS011;34088;52.232;5.196;2023-10-13T05:32:27;19.00;;;10.82;;
48268;SDS011;34088;52.232;5.196;2023-10-13T05:35:12;16.98;;;11.30;;
48268;SDS011;34088;52.232;5.196;2023-10-13T05:37:56;13.52;;;9.77;;
48268;SDS011;34088;52.232;5.196;2023-10-13T05:40:50;17.15;;;11.45;;
48268;SDS011;34088;52.232;5.196;2023-10-13T05:43:41;17.00;;;10.80;;
48268;SDS011;34088;52.232;5.196;2023-10-13T05:46:25;15.35;;;9.48;;
48268;SDS011;34088;52.232;5.196;2023-10-13T05:48:51;18.63;;;8.52;;
48268;SDS011;34088;52.232;5.196;2023-10-13T05:51:23;19.20;;;8.82;;
48268;SDS011;34088;52.232;5.196;2023-10-13T05:53:58;17.90;;;8.57;;
48268;SDS011;34088;52.232;5.196;2023-10-13T05:56:39;18.75;;;8.32;;
48268;SDS011;34088;52.232;5.196;2023-10-13T05:59:31;18.17;;;7.47;;
48268;SDS011;34088;52.232;5.196;2023-10-13T06:02:16;15.40;;;8.20;;
48268;SDS011;34088;52.232;5.196;2023-10-13T06:05:05;18.05;;;7.72;;
48268;SDS011;34088;52.232;5.196;2023-10-13T06:07:50;16.95;;;7.28;;
48268;SDS011;34088;52.232;5.196;2023-10-13T06:10:34;22.17;;;7.72;;
48268;SDS011;34088;52.232;5.196;2023-10-13T06:13:18;19.55;;;7.45;;
48268;SDS011;34088;52.232;5.196;2023-10-13T06:16:08;19.00;;;7.70;;
48268;SDS011;34088;52.232;5.196;2023-10-13T06:18:53;11.93;;;6.70;;
48268;SDS011;34088;52.232;5.196;2023-10-13T06:21:37;20.70;;;7.28;;
48268;SDS011;34088;52.232;5.196;2023-10-13T06:24:21;19.42;;;7.78;;
48268;SDS011;34088;52.232;5.196;2023-10-13T06:27:06;18.98;;;7.85;;
48268;SDS011;34088;52.232;5.196;2023-10-13T06:29:50;17.52;;;7.78;;
48268;SDS011;34088;52.232;5.196;2023-10-13T06:32:15;18.38;;;7.47;;
48268;SDS011;34088;52.232;5.196;2023-10-13T06:34:44;16.60;;;7.95;;
48268;SDS011;34088;52.232;5.196;2023-10-13T06:37:13;18.25;;;7.50;;
48268;SDS011;34088;52.232;5.196;2023-10-13T06:40:11;18.67;;;8.43;;
48268;SDS011;34088;52.232;5.196;2023-10-13T06:42:46;16.52;;;8.45;;
48268;SDS011;34088;52.232;5.196;2023-10-13T06:45:11;21.10;;;8.57;;
48268;SDS011;34088;52.232;5.196;2023-10-13T06:47:37;15.05;;;7.72;;
48268;SDS011;34088;52.232;5.196;2023-10-13T06:50:07;17.45;;;7.32;;
48268;SDS011;34088;52.232;5.196;2023-10-13T06:52:47;19.77;;;9.10;;
48268;SDS011;34088;52.232;5.196;2023-10-13T06:55:12;19.83;;;8.23;;
48268;SDS011;34088;52.232;5.196;2023-10-13T06:57:42;14.52;;;7.70;;
48268;SDS011;34088;52.232;5.196;2023-10-13T07:00:09;18.50;;;8.90;;
48268;SDS011;34088;52.232;5.196;2023-10-13T07:02:53;18.17;;;8.73;;
48268;SDS011;34088;52.232;5.196;2023-10-13T07:07:57;16.67;;;9.07;;
48268;SDS011;34088;52.232;5.196;2023-10-13T07:10:24;16.45;;;9.18;;
48268;SDS011;34088;52.232;5.196;2023-10-13T07:12:54;21.92;;;11.00;;
48268;SDS011;34088;52.232;5.196;2023-10-13T07:15:24;19.65;;;9.88;;
48268;SDS011;34088;52.232;5.196;2023-10-13T07:17:52;16.40;;;10.93;;
48268;SDS011;34088;52.232;5.196;2023-10-13T07:20:24;20.23;;;12.40;;
48268;SDS011;34088;52.232;5.196;2023-10-13T07:22:52;21.75;;;12.65;;
48268;SDS011;34088;52.232;5.196;2023-10-13T07:25:27;20.00;;;14.43;;
48268;SDS011;34088;52.232;5.196;2023-10-13T07:27:57;24.30;;;15.93;;
48268;SDS011;34088;52.232;5.196;2023-10-13T07:30:23;23.48;;;16.95;;
48268;SDS011;34088;52.232;5.196;2023-10-13T07:32:51;27.35;;;18.45;;
48268;SDS011;34088;52.232;5.196;2023-10-13T07:35:18;25.70;;;18.40;;
48268;SDS011;34088;52.232;5.196;2023-10-13T07:37:45;28.10;;;18.75;;
48268;SDS011;34088;52.232;5.196;2023-10-13T07:40:17;22.80;;;16.77;;
48268;SDS011;34088;52.232;5.196;2023-10-13T07:42:52;27.10;;;16.38;;
48268;SDS011;34088;52.232;5.196;2023-10-13T07:45:17;21.30;;;15.05;;
48268;SDS011;34088;52.232;5.196;2023-10-13T07:47:47;21.33;;;16.42;;
48268;SDS011;34088;52.232;5.196;2023-10-13T07:50:12;25.73;;;16.30;;
48268;SDS011;34088;52.232;5.196;2023-10-13T07:52:37;26.60;;;14.48;;
48268;SDS011;34088;52.232;5.196;2023-10-13T07:55:06;19.38;;;12.65;;
48268;SDS011;34088;52.232;5.196;2023-10-13T07:57:39;22.10;;;13.40;;
48268;SDS011;34088;52.232;5.196;2023-10-13T08:00:20;20.45;;;10.80;;
48268;SDS011;34088;52.232;5.196;2023-10-13T08:03:12;19.30;;;10.30;;
48268;SDS011;34088;52.232;5.196;2023-10-13T08:05:41;16.58;;;9.77;;
48268;SDS011;34088;52.232;5.196;2023-10-13T08:08:28;18.40;;;10.15;;
48268;SDS011;34088;52.232;5.196;2023-10-13T08:11:11;20.55;;;10.13;;
48268;SDS011;34088;52.232;5.196;2023-10-13T08:13:53;19.70;;;9.45;;
48268;SDS011;34088;52.232;5.196;2023-10-13T08:16:21;19.35;;;9.63;;
48268;SDS011;34088;52.232;5.196;2023-10-13T08:18:50;20.25;;;9.98;;
48268;SDS011;34088;52.232;5.196;2023-10-13T08:21:17;23.88;;;9.25;;
48268;SDS011;34088;52.232;5.196;2023-10-13T08:23:50;17.75;;;8.27;;
48268;SDS011;34088;52.232;5.196;2023-10-13T08:26:30;19.30;;;7.90;;
48268;SDS011;34088;52.232;5.196;2023-10-13T08:29:02;20.80;;;7.90;;
48268;SDS011;34088;52.232;5.196;2023-10-13T08:31:44;14.75;;;8.48;;
48268;SDS011;34088;52.232;5.196;2023-10-13T08:34:37;16.42;;;7.28;;
48268;SDS011;34088;52.232;5.196;2023-10-13T08:37:12;16.65;;;7.63;;
48268;SDS011;34088;52.232;5.196;2023-10-13T08:39:51;17.92;;;8.27;;
48268;SDS011;34088;52.232;5.196;2023-10-13T08:42:30;17.80;;;7.82;;
48268;SDS011;34088;52.232;5.196;2023-10-13T08:45:08;18.30;;;7.60;;
48268;SDS011;34088;52.232;5.196;2023-10-13T08:48:06;16.77;;;6.53;;
48268;SDS011;34088;52.232;5.196;2023-10-13T08:50:42;16.50;;;7.68;;
48268;SDS011;34088;52.232;5.196;2023-10-13T08:56:03;17.77;;;7.30;;
48268;SDS011;34088;52.232;5.196;2023-10-13T08:58:38;15.63;;;7.18;;
48268;SDS011;34088;52.232;5.196;2023-10-13T09:04:08;21.60;;;7.60;;
48268;SDS011;34088;52.232;5.196;2023-10-13T09:06:51;18.67;;;6.90;;
48268;SDS011;34088;52.232;5.196;2023-10-13T09:09:50;15.90;;;6.97;;
48268;SDS011;34088;52.232;5.196;2023-10-13T09:12:20;16.77;;;6.72;;
48268;SDS011;34088;52.232;5.196;2023-10-13T09:15:16;20.35;;;7.20;;
48268;SDS011;34088;52.232;5.196;2023-10-13T09:17:45;17.55;;;7.40;;
48268;SDS011;34088;52.232;5.196;2023-10-13T09:20:14;17.95;;;7.55;;
48268;SDS011;34088;52.232;5.196;2023-10-13T09:23:07;18.73;;;7.57;;
48268;SDS011;34088;52.232;5.196;2023-10-13T09:25:38;14.80;;;6.70;;
48268;SDS011;34088;52.232;5.196;2023-10-13T09:28:23;15.43;;;7.13;;
48268;SDS011;34088;52.232;5.196;2023-10-13T09:30:52;19.20;;;7.10;;
48268;SDS011;34088;52.232;5.196;2023-10-13T09:33:19;18.83;;;6.70;;
48268;SDS011;34088;52.232;5.196;2023-10-13T09:35:53;16.05;;;7.13;;
48268;SDS011;34088;52.232;5.196;2023-10-13T09:38:19;16.40;;;7.00;;
48268;SDS011;34088;52.232;5.196;2023-10-13T09:40:45;20.33;;;6.97;;
48268;SDS011;34088;52.232;5.196;2023-10-13T09:43:16;22.58;;;7.32;;
48268;SDS011;34088;52.232;5.196;2023-10-13T09:45:43;16.50;;;6.72;;
48268;SDS011;34088;52.232;5.196;2023-10-13T09:48:33;18.13;;;7.13;;
48268;SDS011;34088;52.232;5.196;2023-10-13T09:51:01;14.98;;;6.70;;
48268;SDS011;34088;52.232;5.196;2023-10-13T09:53:31;14.57;;;6.57;;
48268;SDS011;34088;52.232;5.196;2023-10-13T09:56:01;19.77;;;6.82;;
48268;SDS011;34088;52.232;5.196;2023-10-13T09:58:38;22.50;;;7.35;;
48268;SDS011;34088;52.232;5.196;2023-10-13T10:01:26;14.55;;;7.03;;
48268;SDS011;34088;52.232;5.196;2023-10-13T10:04:10;16.92;;;7.05;;
48268;SDS011;34088;52.232;5.196;2023-10-13T10:06:51;13.73;;;6.32;;
48268;SDS011;34088;52.232;5.196;2023-10-13T10:09:25;26.10;;;7.40;;
48268;SDS011;34088;52.232;5.196;2023-10-13T10:15:02;17.05;;;7.05;;
48268;SDS011;34088;52.232;5.196;2023-10-13T10:17:55;16.70;;;7.00;;
48268;SDS011;34088;52.232;5.196;2023-10-13T10:20:27;16.73;;;6.20;;
48268;SDS011;34088;52.232;5.196;2023-10-13T10:23:10;17.48;;;6.70;;
48268;SDS011;34088;52.232;5.196;2023-10-13T10:25:47;21.60;;;7.15;;
48268;SDS011;34088;52.232;5.196;2023-10-13T10:28:15;19.63;;;7.13;;
48268;SDS011;34088;52.232;5.196;2023-10-13T10:30:41;16.27;;;6.93;;
48268;SDS011;34088;52.232;5.196;2023-10-13T10:33:08;17.75;;;6.97;;
48268;SDS011;34088;52.232;5.196;2023-10-13T10:35:38;20.55;;;7.18;;
48268;SDS011;34088;52.232;5.196;2023-10-13T10:38:17;24.83;;;6.93;;
48268;SDS011;34088;52.232;5.196;2023-10-13T10:40:56;18.52;;;7.30;;
48268;SDS011;34088;52.232;5.196;2023-10-13T10:43:24;18.10;;;6.70;;
48268;SDS011;34088;52.232;5.196;2023-10-13T10:46:10;22.38;;;7.57;;
48268;SDS011;34088;52.232;5.196;2023-10-13T10:48:37;23.95;;;7.03;;
48268;SDS011;34088;52.232;5.196;2023-10-13T10:51:12;16.17;;;7.05;;
48268;SDS011;34088;52.232;5.196;2023-10-13T10:53:40;17.58;;;6.82;;
48268;SDS011;34088;52.232;5.196;2023-10-13T10:56:09;19.55;;;6.70;;
48268;SDS011;34088;52.232;5.196;2023-10-13T10:58:48;15.65;;;6.78;;
48268;SDS011;34088;52.232;5.196;2023-10-13T11:01:25;22.73;;;7.28;;
48268;SDS011;34088;52.232;5.196;2023-10-13T11:04:02;20.08;;;6.88;;
48268;SDS011;34088;52.232;5.196;2023-10-13T11:06:47;16.48;;;6.70;;
48268;SDS011;34088;52.232;5.196;2023-10-13T11:09:14;18.77;;;7.30;;
48268;SDS011;34088;52.232;5.196;2023-10-13T11:11:53;17.55;;;6.43;;
48268;SDS011;34088;52.232;5.196;2023-10-13T11:14:19;18.70;;;7.22;;
48268;SDS011;34088;52.232;5.196;2023-10-13T11:16:48;16.83;;;6.68;;
48268;SDS011;34088;52.232;5.196;2023-10-13T11:22:09;20.23;;;6.85;;
48268;SDS011;34088;52.232;5.196;2023-10-13T11:24:54;18.65;;;6.82;;
48268;SDS011;34088;52.232;5.196;2023-10-13T11:27:24;17.48;;;7.32;;
48268;SDS011;34088;52.232;5.196;2023-10-13T11:30:09;19.95;;;6.50;;
48268;SDS011;34088;52.232;5.196;2023-10-13T11:32:40;18.58;;;6.93;;
48268;SDS011;34088;52.232;5.196;2023-10-13T11:35:10;18.50;;;7.35;;
48268;SDS011;34088;52.232;5.196;2023-10-13T11:37:45;17.35;;;7.00;;
48268;SDS011;34088;52.232;5.196;2023-10-13T11:40:20;23.67;;;7.38;;
48268;SDS011;34088;52.232;5.196;2023-10-13T11:43:05;18.05;;;6.78;;
48268;SDS011;34088;52.232;5.196;2023-10-13T11:45:31;21.73;;;7.43;;
48268;SDS011;34088;52.232;5.196;2023-10-13T11:47:56;25.13;;;6.55;;
48268;SDS011;34088;52.232;5.196;2023-10-13T11:50:25;13.38;;;6.03;;
48268;SDS011;34088;52.232;5.196;2023-10-13T11:53:00;16.92;;;6.35;;
48268;SDS011;34088;52.232;5.196;2023-10-13T11:55:25;21.33;;;6.65;;
48268;SDS011;34088;52.232;5.196;2023-10-13T11:57:51;18.67;;;6.65;;
48268;SDS011;34088;52.232;5.196;2023-10-13T12:00:16;16.08;;;6.78;;
48268;SDS011;34088;52.232;5.196;2023-10-13T12:03:11;20.10;;;6.80;;
48268;SDS011;34088;52.232;5.196;2023-10-13T12:05:55;17.85;;;6.68;;
48268;SDS011;34088;52.232;5.196;2023-10-13T12:08:39;23.95;;;7.38;;
48268;SDS011;34088;52.232;5.196;2023-10-13T12:11:14;15.63;;;7.00;;
48268;SDS011;34088;52.232;5.196;2023-10-13T12:13:57;17.63;;;7.70;;
48268;SDS011;34088;52.232;5.196;2023-10-13T12:16:23;21.23;;;7.60;;
48268;SDS011;34088;52.232;5.196;2023-10-13T12:18:58;20.40;;;6.78;;
48268;SDS011;34088;52.232;5.196;2023-10-13T12:21:26;18.92;;;7.25;;
48268;SDS011;34088;52.232;5.196;2023-10-13T12:23:51;23.50;;;7.30;;
48268;SDS011;34088;52.232;5.196;2023-10-13T12:26:18;21.17;;;7.57;;
48268;SDS011;34088;52.232;5.196;2023-10-13T12:28:44;21.15;;;7.50;;
48268;SDS011;34088;52.232;5.196;2023-10-13T12:31:16;21.48;;;7.78;;
48268;SDS011;34088;52.232;5.196;2023-10-13T12:33:42;23.80;;;7.93;;
48268;SDS011;34088;52.232;5.196;2023-10-13T12:36:12;19.88;;;7.47;;
48268;SDS011;34088;52.232;5.196;2023-10-13T12:38:47;29.13;;;7.68;;
48268;SDS011;34088;52.232;5.196;2023-10-13T12:41:13;23.58;;;7.15;;
48268;SDS011;34088;52.232;5.196;2023-10-13T12:44:06;23.20;;;7.53;;
48268;SDS011;34088;52.232;5.196;2023-10-13T12:46:50;21.75;;;7.65;;
48268;SDS011;34088;52.232;5.196;2023-10-13T12:49:35;21.70;;;7.70;;
48268;SDS011;34088;52.232;5.196;2023-10-13T12:52:14;22.92;;;8.00;;
48268;SDS011;34088;52.232;5.196;2023-10-13T12:54:51;26.30;;;8.15;;
48268;SDS011;34088;52.232;5.196;2023-10-13T12:57:22;23.73;;;8.05;;
48268;SDS011;34088;52.232;5.196;2023-10-13T12:59:55;19.27;;;7.57;;
48268;SDS011;34088;52.232;5.196;2023-10-13T13:02:20;23.45;;;8.07;;
48268;SDS011;34088;52.232;5.196;2023-10-13T13:04:46;21.10;;;7.70;;
48268;SDS011;34088;52.232;5.196;2023-10-13T13:07:16;19.40;;;7.90;;
48268;SDS011;34088;52.232;5.196;2023-10-13T13:09:41;27.88;;;8.15;;
48268;SDS011;34088;52.232;5.196;2023-10-13T13:12:07;21.40;;;7.65;;
48268;SDS011;34088;52.232;5.196;2023-10-13T13:14:32;22.90;;;8.45;;
48268;SDS011;34088;52.232;5.196;2023-10-13T13:16:59;21.15;;;7.82;;
48268;SDS011;34088;52.232;5.196;2023-10-13T13:19:34;20.60;;;8.07;;
48268;SDS011;34088;52.232;5.196;2023-10-13T13:22:04;18.60;;;7.93;;
48268;SDS011;34088;52.232;5.196;2023-10-13T13:27:11;24.40;;;8.00;;
48268;SDS011;34088;52.232;5.196;2023-10-13T13:29:44;18.55;;;7.95;;
48268;SDS011;34088;52.232;5.196;2023-10-13T13:32:10;21.05;;;8.70;;
48268;SDS011;34088;52.232;5.196;2023-10-13T13:34:49;23.17;;;7.88;;
48268;SDS011;34088;52.232;5.196;2023-10-13T13:37:23;20.30;;;8.45;;
48268;SDS011;34088;52.232;5.196;2023-10-13T13:39:52;20.17;;;8.27;;
48268;SDS011;34088;52.232;5.196;2023-10-13T13:42:17;22.20;;;8.60;;
48268;SDS011;34088;52.232;5.196;2023-10-13T13:44:43;21.65;;;8.98;;
48268;SDS011;34088;52.232;5.196;2023-10-13T13:47:11;18.00;;;8.52;;
48268;SDS011;34088;52.232;5.196;2023-10-13T13:49:38;18.75;;;8.50;;
48268;SDS011;34088;52.232;5.196;2023-10-13T13:52:16;24.00;;;8.43;;
48268;SDS011;34088;52.232;5.196;2023-10-13T13:54:46;20.83;;;8.13;;
48268;SDS011;34088;52.232;5.196;2023-10-13T13:57:11;20.80;;;8.57;;
48268;SDS011;34088;52.232;5.196;2023-10-13T13:59:38;23.20;;;8.25;;
48268;SDS011;34088;52.232;5.196;2023-10-13T14:02:04;27.77;;;8.38;;
48268;SDS011;34088;52.232;5.196;2023-10-13T14:04:44;20.73;;;8.35;;
48268;SDS011;34088;52.232;5.196;2023-10-13T14:07:11;23.13;;;8.88;;
48268;SDS011;34088;52.232;5.196;2023-10-13T14:09:38;20.35;;;8.52;;
48268;SDS011;34088;52.232;5.196;2023-10-13T14:12:09;24.05;;;8.57;;
48268;SDS011;34088;52.232;5.196;2023-10-13T14:14:53;20.52;;;8.80;;
48268;SDS011;34088;52.232;5.196;2023-10-13T14:17:21;22.17;;;9.50;;
48268;SDS011;34088;52.232;5.196;2023-10-13T14:20:00;16.85;;;9.02;;
48268;SDS011;34088;52.232;5.196;2023-10-13T14:22:30;22.70;;;9.77;;
48268;SDS011;34088;52.232;5.196;2023-10-13T14:25:01;27.25;;;9.90;;
48268;SDS011;34088;52.232;5.196;2023-10-13T14:27:33;22.38;;;9.68;;
48268;SDS011;34088;52.232;5.196;2023-10-13T14:30:00;23.77;;;9.65;;
48268;SDS011;34088;52.232;5.196;2023-10-13T14:32:26;18.85;;;8.82;;
48268;SDS011;34088;52.232;5.196;2023-10-13T14:34:52;20.48;;;8.82;;
48268;SDS011;34088;52.232;5.196;2023-10-13T14:37:21;24.95;;;9.52;;
48268;SDS011;34088;52.232;5.196;2023-10-13T14:39:56;22.35;;;9.75;;
48268;SDS011;34088;52.232;5.196;2023-10-13T14:42:25;23.08;;;8.95;;
48268;SDS011;34088;52.232;5.196;2023-10-13T14:44:51;26.25;;;9.75;;
48268;SDS011;34088;52.232;5.196;2023-10-13T14:47:23;21.80;;;7.80;;
48268;SDS011;34088;52.232;5.196;2023-10-13T14:49:51;15.35;;;6.40;;
48268;SDS011;34088;52.232;5.196;2023-10-13T14:52:24;17.00;;;7.28;;
48268;SDS011;34088;52.232;5.196;2023-10-13T14:54:51;14.23;;;6.65;;
48268;SDS011;34088;52.232;5.196;2023-10-13T14:57:25;15.05;;;5.93;;
48268;SDS011;34088;52.232;5.196;2023-10-13T14:59:54;15.68;;;5.80;;
48268;SDS011;34088;52.232;5.196;2023-10-13T15:02:20;13.48;;;5.95;;
48268;SDS011;34088;52.232;5.196;2023-10-13T15:04:49;12.07;;;5.45;;
48268;SDS011;34088;52.232;5.196;2023-10-13T15:07:16;13.98;;;5.30;;
48268;SDS011;34088;52.232;5.196;2023-10-13T15:09:42;14.18;;;5.93;;
48268;SDS011;34088;52.232;5.196;2023-10-13T15:12:08;15.77;;;6.28;;
48268;SDS011;34088;52.232;5.196;2023-10-13T15:14:37;21.40;;;6.38;;
48268;SDS011;34088;52.232;5.196;2023-10-13T15:17:04;17.02;;;5.97;;
48268;SDS011;34088;52.232;5.196;2023-10-13T15:19:31;16.58;;;5.88;;
48268;SDS011;34088;52.232;5.196;2023-10-13T15:22:01;17.83;;;6.18;;
48268;SDS011;34088;52.232;5.196;2023-10-13T15:24:27;18.90;;;6.50;;
48268;SDS011;34088;52.232;5.196;2023-10-13T15:26:52;20.42;;;7.00;;
48268;SDS011;34088;52.232;5.196;2023-10-13T15:29:25;19.08;;;6.93;;
48268;SDS011;34088;52.232;5.196;2023-10-13T15:31:51;18.60;;;6.82;;
48268;SDS011;34088;52.232;5.196;2023-10-13T15:34:26;24.55;;;7.55;;
48268;SDS011;34088;52.232;5.196;2023-10-13T15:36:53;20.27;;;6.70;;
48268;SDS011;34088;52.232;5.196;2023-10-13T15:39:20;22.30;;;6.50;;
48268;SDS011;34088;52.232;5.196;2023-10-13T15:41:49;16.75;;;6.35;;